Time;durP1;ratioP1;P1;durP2;ratioP2;P2;SDS_P1;SDS_P2;PMS_P1;PMS_P2;Temp;Humidity;BMP_temperature;BMP_pressure;BME280_temperature;BME280_humidity;BME280_pressure;Samples;Min_cycle;Max_cycle;Signal;HPM_P1;HPM_P2
2021/03/05 00:00:26;;;;;;;7.07;3.30;;;;;;;2.10;58.63;101944.03;5079776;28;20435;-76
2021/03/05 00:02:52;;;;;;;4.50;2.93;;;;;;;1.72;59.99;101945.00;5090110;28;20164;-77
2021/03/05 00:05:18;;;;;;;8.03;3.30;;;;;;;2.28;58.92;101947.75;5093625;28;20157;-76
2021/03/05 00:07:43;;;;;;;4.80;3.50;;;;;;;2.39;58.65;101948.41;5092711;28;20461;-77
2021/03/05 00:10:11;;;;;;;7.40;3.93;;;;;;;2.11;59.17;101958.66;5091111;28;20203;-78
2021/03/05 00:12:37;;;;;;;5.90;3.10;;;;;;;2.05;59.16;101958.28;5080153;28;20516;-77
2021/03/05 00:15:05;;;;;;;3.23;2.93;;;;;;;2.28;58.54;101958.03;5079958;28;20446;-76
2021/03/05 00:17:30;;;;;;;7.00;3.97;;;;;;;2.00;59.52;101964.00;5081184;28;20455;-77
2021/03/05 00:19:55;;;;;;;10.43;3.60;;;;;;;1.99;59.74;101969.06;5079934;28;20415;-78
2021/03/05 00:22:21;;;;;;;4.77;2.90;;;;;;;2.08;59.58;101977.34;5080384;28;20164;-79
2021/03/05 00:24:46;;;;;;;7.17;3.50;;;;;;;1.95;59.10;101978.25;5082036;28;20169;-78
2021/03/05 00:27:11;;;;;;;9.80;3.80;;;;;;;2.34;58.52;101970.38;5090524;28;20169;-79
2021/03/05 00:29:36;;;;;;;5.53;2.97;;;;;;;1.99;59.56;101976.78;5088669;28;20588;-78
2021/03/05 00:32:02;;;;;;;4.10;3.23;;;;;;;1.73;60.05;101981.09;5084705;28;20169;-77
2021/03/05 00:34:27;;;;;;;6.30;3.20;;;;;;;1.76;60.75;101978.75;5082371;28;20209;-77
2021/03/05 00:36:52;;;;;;;6.47;3.20;;;;;;;1.93;59.47;101978.94;5089414;28;20169;-78
2021/03/05 00:39:18;;;;;;;6.87;3.53;;;;;;;1.90;60.35;101987.34;5080322;28;20200;-79
2021/03/05 00:41:43;;;;;;;10.43;3.40;;;;;;;2.02;59.19;101988.13;5079589;28;20240;-77
2021/03/05 00:44:09;;;;;;;4.03;2.90;;;;;;;2.05;59.35;101986.56;5079080;28;20183;-79
2021/03/05 00:46:34;;;;;;;5.40;2.90;;;;;;;1.81;60.25;101997.94;5078365;28;20177;-78
2021/03/05 00:48:59;;;;;;;7.10;3.83;;;;;;;1.85;60.36;102004.16;5080660;28;20204;-77
2021/03/05 00:51:25;;;;;;;3.53;3.00;;;;;;;2.23;58.73;101994.56;5083192;28;20165;-77
2021/03/05 00:53:51;;;;;;;7.63;3.60;;;;;;;1.82;60.05;102001.38;5082435;28;20566;-78
2021/03/05 00:56:16;;;;;;;8.03;3.20;;;;;;;1.80;59.87;102002.94;5082600;28;20168;-78
2021/03/05 00:58:41;;;;;;;6.43;3.97;;;;;;;1.71;60.38;102003.25;5083001;28;20252;-79
2021/03/05 01:01:07;;;;;;;9.27;5.13;;;;;;;1.52;60.90;102014.88;5081702;28;20166;-76
2021/03/05 01:03:32;;;;;;;7.17;3.53;;;;;;;1.48;61.89;102012.00;5082441;28;20181;-79
2021/03/05 01:05:59;;;;;;;5.20;4.00;;;;;;;1.31;62.48;102022.03;5082264;28;20157;-79
2021/03/05 01:08:24;;;;;;;5.30;3.47;;;;;;;1.24;62.57;102024.97;5082573;28;20255;-77
2021/03/05 01:10:49;;;;;;;7.33;4.50;;;;;;;1.06;63.46;102026.28;5082114;28;20442;-78
2021/03/05 01:13:15;;;;;;;6.00;4.30;;;;;;;1.32;62.51;102033.19;5082680;28;20176;-79
2021/03/05 01:15:40;;;;;;;7.30;4.13;;;;;;;1.41;62.09;102030.34;5082322;28;20558;-78
2021/03/05 01:18:06;;;;;;;4.90;3.60;;;;;;;1.51;62.16;102030.19;5081377;28;20242;-78
2021/03/05 01:20:31;;;;;;;7.60;4.27;;;;;;;1.50;61.91;102031.88;5082414;28;20193;-78
2021/03/05 01:22:57;;;;;;;5.20;4.00;;;;;;;1.33;62.15;102028.16;5082169;28;20539;-78
2021/03/05 01:25:25;;;;;;;3.97;3.50;;;;;;;1.75;61.63;102035.22;5081454;28;20594;-78
2021/03/05 01:27:51;;;;;;;5.27;4.00;;;;;;;1.60;61.41;102025.66;5064988;28;20173;-79
2021/03/05 01:30:18;;;;;;;8.97;4.20;;;;;;;1.67;61.63;102035.56;5081851;28;20418;-78
2021/03/05 01:32:44;;;;;;;6.33;3.73;;;;;;;1.48;61.93;102033.44;5081860;28;20523;-77
2021/03/05 01:35:14;;;;;;;7.40;3.40;;;;;;;1.36;62.58;102029.16;5082234;28;20407;-78
2021/03/05 01:37:40;;;;;;;9.17;4.33;;;;;;;1.17;62.35;102038.19;5081471;28;20517;-78
2021/03/05 01:40:09;;;;;;;10.60;4.70;;;;;;;1.45;62.24;102042.66;5083278;28;20454;-78
2021/03/05 01:42:35;;;;;;;5.23;3.43;;;;;;;1.55;61.94;102041.59;5082113;28;20419;-78
2021/03/05 01:45:00;;;;;;;5.30;3.83;;;;;;;1.46;61.53;102039.25;5081409;28;20458;-77
2021/03/05 01:47:26;;;;;;;10.10;4.40;;;;;;;1.65;61.78;102037.16;5081632;28;20173;-77
2021/03/05 01:49:51;;;;;;;16.33;3.73;;;;;;;1.62;61.15;102038.63;5081443;28;20203;-77
2021/03/05 01:52:16;;;;;;;4.43;3.20;;;;;;;1.60;61.02;102033.38;5081137;28;20189;-77
2021/03/05 01:54:42;;;;;;;5.50;3.97;;;;;;;1.59;61.69;102034.16;5082023;28;20177;-78
2021/03/05 01:57:07;;;;;;;7.47;3.60;;;;;;;1.54;62.24;102035.53;5081016;28;20169;-75
2021/03/05 01:59:33;;;;;;;5.97;4.00;;;;;;;1.79;61.04;102038.06;5080672;28;20550;-75
2021/03/05 02:02:08;;;;;;;8.40;4.10;;;;;;;1.80;60.50;102036.38;5081368;28;20179;-75
2021/03/05 02:04:37;;;;;;;6.97;3.63;;;;;;;1.66;60.97;102033.81;5081247;28;20215;-75
2021/03/05 02:07:07;;;;;;;4.63;3.77;;;;;;;1.85;60.27;102035.00;5080169;28;20464;-74
2021/03/05 02:09:33;;;;;;;5.87;4.00;;;;;;;1.56;61.79;102040.81;5081002;28;20414;-75
2021/03/05 02:11:59;;;;;;;6.10;4.03;;;;;;;1.60;61.28;102050.50;5081050;28;20451;-75
2021/03/05 02:14:24;;;;;;;8.43;3.83;;;;;;;1.38;61.59;102046.47;5081373;28;20720;-78
2021/03/05 02:16:58;;;;;;;7.80;3.40;;;;;;;1.62;62.17;102042.06;5080714;28;20423;-78
2021/03/05 02:19:47;;;;;;;9.10;3.70;;;;;;;1.38;62.16;102046.47;5080702;28;20212;-78
2021/03/05 02:22:12;;;;;;;4.33;3.23;;;;;;;1.36;62.38;102055.75;5080212;28;20445;-78
2021/03/05 02:25:11;;;;;;;5.97;3.90;;;;;;;1.45;61.86;102056.38;5080171;28;20462;-77
2021/03/05 02:28:07;;;;;;;5.10;3.23;;;;;;;1.34;62.01;102063.34;5080565;28;20185;-78
2021/03/05 02:30:39;;;;;;;4.60;3.70;;;;;;;1.26;62.60;102068.72;5080514;28;20472;-77
2021/03/05 02:33:20;;;;;;;8.40;4.30;;;;;;;1.30;62.00;102073.28;5079797;28;20524;-77
2021/03/05 02:35:47;;;;;;;7.83;3.50;;;;;;;1.27;62.29;102075.66;5079994;28;20411;-77
2021/03/05 02:38:12;;;;;;;6.83;3.30;;;;;;;1.41;62.21;102076.59;5079909;28;20419;-77
2021/03/05 02:40:40;;;;;;;4.93;3.33;;;;;;;1.27;62.60;102079.16;5079575;28;20419;-78
2021/03/05 02:43:09;;;;;;;5.03;3.30;;;;;;;1.14;62.85;102073.94;5080069;28;20173;-77
2021/03/05 02:45:37;;;;;;;7.20;3.83;;;;;;;1.22;62.84;102074.44;5080524;28;20451;-78
2021/03/05 02:48:09;;;;;;;4.63;2.77;;;;;;;1.43;61.51;102073.34;5079677;28;20449;-77
2021/03/05 02:50:37;;;;;;;5.17;3.37;;;;;;;1.17;62.27;102074.13;5080138;28;20458;-77
2021/03/05 02:53:05;;;;;;;4.47;3.70;;;;;;;1.18;63.05;102075.94;5079815;28;20415;-79
2021/03/05 02:55:31;;;;;;;8.57;4.50;;;;;;;1.32;62.21;102077.75;5080240;28;20494;-80
2021/03/05 02:57:58;;;;;;;5.50;3.90;;;;;;;1.33;62.16;102083.81;5079689;28;20743;-78
2021/03/05 03:00:25;;;;;;;9.40;3.57;;;;;;;1.28;62.04;102080.91;5079775;28;20411;-79
2021/03/05 03:02:52;;;;;;;7.07;3.37;;;;;;;1.06;62.98;102083.66;5079929;28;20816;-80
2021/03/05 03:05:18;;;;;;;7.50;3.27;;;;;;;1.40;62.17;102079.97;5080177;28;20465;-78
2021/03/05 03:07:44;;;;;;;6.83;3.47;;;;;;;1.27;62.24;102078.22;5080164;28;20431;-79
2021/03/05 03:10:10;;;;;;;7.50;4.00;;;;;;;1.34;61.92;102077.88;5080476;28;20168;-77
2021/03/05 03:12:36;;;;;;;8.93;3.70;;;;;;;1.15;62.75;102092.03;5079581;28;20172;-79
2021/03/05 03:15:08;;;;;;;7.23;3.20;;;;;;;1.04;63.20;102092.03;5079130;28;20421;-79
2021/03/05 03:17:34;;;;;;;5.83;3.77;;;;;;;1.10;61.94;102088.22;5080477;28;20500;-79
2021/03/05 03:20:00;;;;;;;4.80;3.43;;;;;;;1.01;63.24;102095.28;5079044;28;20498;-78
2021/03/05 03:22:25;;;;;;;5.30;3.47;;;;;;;1.08;62.91;102096.63;5078910;28;20415;-78
2021/03/05 03:24:51;;;;;;;6.97;3.53;;;;;;;1.15;62.61;102098.81;5079752;28;20227;-78
2021/03/05 03:27:16;;;;;;;4.30;3.17;;;;;;;0.90;63.43;102102.22;5078895;28;20502;-77
2021/03/05 03:29:41;;;;;;;7.20;3.60;;;;;;;1.00;64.00;102098.63;5079499;28;20169;-77
2021/03/05 03:32:10;;;;;;;10.87;3.57;;;;;;;0.92;63.31;102097.19;5079494;28;20172;-78
2021/03/05 03:34:38;;;;;;;3.53;3.23;;;;;;;1.29;62.11;102102.38;5079514;28;20169;-78
2021/03/05 03:37:03;;;;;;;7.30;3.43;;;;;;;1.23;62.67;102105.41;5079887;28;20453;-78
2021/03/05 03:39:28;;;;;;;8.57;3.83;;;;;;;1.11;62.95;102109.66;5080486;28;20419;-78
2021/03/05 03:41:54;;;;;;;4.60;3.60;;;;;;;1.00;63.23;102104.69;5080994;28;20235;-76
2021/03/05 03:44:19;;;;;;;8.73;3.43;;;;;;;1.09;63.12;102109.56;5080802;28;20228;-77
2021/03/05 03:46:48;;;;;;;4.90;3.50;;;;;;;1.05;63.62;102115.25;5080146;28;20204;-78
2021/03/05 03:49:36;;;;;;;5.57;3.60;;;;;;;0.79;63.28;102128.84;5080792;28;20164;-77
2021/03/05 03:52:21;;;;;;;12.80;5.73;;;;;;;0.84;64.16;102122.34;5078694;28;20426;-78
2021/03/05 03:54:48;;;;;;;5.23;4.50;;;;;;;0.77;63.84;102123.59;5078327;28;20848;-78
2021/03/05 03:57:15;;;;;;;5.83;3.83;;;;;;;0.98;63.29;102121.63;5078532;28;20423;-78
2021/03/05 03:59:41;;;;;;;9.87;4.57;;;;;;;0.71;63.80;102135.97;5078195;28;20407;-78
2021/03/05 04:02:09;;;;;;;10.70;4.10;;;;;;;0.70;64.08;102141.88;5078305;28;20793;-78
2021/03/05 04:04:36;;;;;;;11.50;4.17;;;;;;;0.66;64.75;102148.47;5078745;28;20258;-78
2021/03/05 04:07:02;;;;;;;5.77;3.77;;;;;;;0.66;64.30;102138.22;5078301;28;20415;-78
2021/03/05 04:09:28;;;;;;;11.13;4.20;;;;;;;0.42;64.71;102137.31;5078577;28;20425;-77
2021/03/05 04:11:55;;;;;;;10.03;4.23;;;;;;;0.60;64.05;102145.47;5078082;28;20210;-79
2021/03/05 04:14:22;;;;;;;5.20;4.00;;;;;;;0.83;63.46;102152.25;5078902;28;20710;-78
2021/03/05 04:16:47;;;;;;;10.13;4.57;;;;;;;1.18;62.52;102155.56;5079573;28;20801;-78
2021/03/05 04:19:13;;;;;;;8.83;4.17;;;;;;;0.64;64.61;102155.16;5078818;28;20447;-77
2021/03/05 04:21:38;;;;;;;7.93;4.10;;;;;;;0.56;64.42;102155.41;5077965;28;20173;-76
2021/03/05 04:24:04;;;;;;;12.80;4.83;;;;;;;0.79;63.71;102151.94;5078766;28;20522;-78
2021/03/05 04:26:30;;;;;;;6.90;4.00;;;;;;;0.97;62.93;102153.22;5078532;28;20278;-77
2021/03/05 04:28:55;;;;;;;4.23;3.73;;;;;;;0.94;62.47;102163.28;5078978;28;20422;-78
2021/03/05 04:31:20;;;;;;;9.30;3.73;;;;;;;0.77;63.47;102162.09;5079100;28;20522;-77
2021/03/05 04:33:46;;;;;;;6.13;3.93;;;;;;;0.69;63.68;102172.56;5078191;28;20184;-77
2021/03/05 04:36:11;;;;;;;5.83;4.00;;;;;;;0.56;63.76;102166.53;5078813;28;20200;-77
2021/03/05 04:38:36;;;;;;;5.00;4.50;;;;;;;0.77;63.60;102171.44;5079587;28;20172;-77
2021/03/05 04:41:02;;;;;;;9.90;4.57;;;;;;;0.95;62.73;102175.34;5078337;28;20172;-79
2021/03/05 04:43:27;;;;;;;7.57;3.83;;;;;;;0.45;63.95;102182.84;5078073;28;20474;-78
2021/03/05 04:45:52;;;;;;;6.97;5.00;;;;;;;0.75;63.62;102185.88;5079263;28;20287;-78
2021/03/05 04:48:18;;;;;;;7.60;4.30;;;;;;;0.39;65.14;102184.94;5078204;28;20241;-78
2021/03/05 04:50:43;;;;;;;7.10;4.23;;;;;;;0.49;63.88;102184.84;5078498;28;20169;-78
2021/03/05 04:53:10;;;;;;;7.57;4.10;;;;;;;0.42;63.98;102187.72;5079201;28;20188;-78
2021/03/05 04:55:35;;;;;;;8.80;4.50;;;;;;;0.55;63.63;102198.13;5078087;28;20260;-78
2021/03/05 04:58:01;;;;;;;5.53;4.37;;;;;;;0.39;64.21;102192.63;5078742;28;20503;-80
2021/03/05 05:00:26;;;;;;;7.87;4.17;;;;;;;0.46;63.83;102202.56;5079703;28;20173;-79
2021/03/05 05:02:52;;;;;;;8.03;4.80;;;;;;;0.45;64.78;102203.34;5079444;28;20173;-79
2021/03/05 05:05:17;;;;;;;6.90;4.80;;;;;;;0.35;64.24;102206.00;5079741;28;20288;-77
2021/03/05 05:07:42;;;;;;;10.47;4.83;;;;;;;0.62;63.95;102209.72;5079843;28;20172;-79
2021/03/05 05:10:08;;;;;;;6.87;5.23;;;;;;;0.35;64.49;102219.72;5079488;28;20194;-78
2021/03/05 05:12:34;;;;;;;6.80;5.07;;;;;;;0.54;64.13;102221.97;5079117;28;20226;-78
2021/03/05 05:14:59;;;;;;;10.23;5.00;;;;;;;0.13;65.29;102225.78;5078655;28;20785;-78
2021/03/05 05:17:24;;;;;;;8.90;5.73;;;;;;;-0.03;65.21;102228.88;5077815;28;20568;-78
2021/03/05 05:19:50;;;;;;;7.47;5.03;;;;;;;0.37;65.01;102219.84;5078836;28;20554;-79
2021/03/05 05:22:15;;;;;;;11.23;5.50;;;;;;;0.25;65.11;102215.56;5079135;28;20177;-78
2021/03/05 05:24:41;;;;;;;6.90;5.43;;;;;;;0.01;65.31;102232.56;5077769;28;20212;-78
2021/03/05 05:27:06;;;;;;;7.03;5.43;;;;;;;0.19;65.59;102237.28;5078960;28;20223;-79
2021/03/05 05:29:31;;;;;;;13.87;6.40;;;;;;;0.17;65.40;102239.75;5078360;28;20188;-79
2021/03/05 05:31:57;;;;;;;6.70;5.53;;;;;;;0.15;65.02;102247.34;5078418;28;20172;-79
2021/03/05 05:34:22;;;;;;;14.73;6.17;;;;;;;0.43;65.34;102251.97;5079501;28;20173;-79
2021/03/05 05:36:47;;;;;;;6.83;5.90;;;;;;;0.31;64.95;102246.84;5082539;28;20438;-78
2021/03/05 05:39:13;;;;;;;8.13;5.60;;;;;;;0.12;65.56;102253.88;5082236;28;20451;-78
2021/03/05 05:41:41;;;;;;;7.40;4.53;;;;;;;0.21;65.28;102244.34;5087669;28;20232;-78
2021/03/05 05:44:07;;;;;;;8.40;5.10;;;;;;;0.30;65.03;102245.03;5089718;28;20415;-78
2021/03/05 05:46:33;;;;;;;10.93;5.37;;;;;;;0.27;64.78;102244.81;5082505;28;20443;-78
2021/03/05 05:48:59;;;;;;;9.07;6.00;;;;;;;0.47;64.38;102247.97;5081725;28;20504;-79
2021/03/05 05:51:28;;;;;;;7.97;5.60;;;;;;;0.32;64.35;102247.72;5081708;28;20161;-76
2021/03/05 05:53:56;;;;;;;19.40;5.10;;;;;;;0.38;64.32;102247.28;5081019;28;20272;-78
2021/03/05 05:56:22;;;;;;;7.70;5.90;;;;;;;0.06;65.23;102248.31;5080863;28;20823;-78
2021/03/05 05:58:48;;;;;;;6.07;5.00;;;;;;;0.23;64.37;102250.50;5081877;28;20411;-77
2021/03/05 06:01:13;;;;;;;6.93;5.20;;;;;;;0.43;64.23;102251.09;5081144;28;20668;-78
2021/03/05 06:03:39;;;;;;;6.77;4.90;;;;;;;0.21;64.60;102259.72;5081609;28;20175;-78
2021/03/05 06:06:05;;;;;;;8.77;4.70;;;;;;;0.18;64.32;102264.63;5082015;28;20196;-78
2021/03/05 06:08:31;;;;;;;9.80;4.93;;;;;;;0.14;64.50;102265.16;5081346;28;20447;-77
2021/03/05 06:10:56;;;;;;;9.97;6.97;;;;;;;0.33;65.19;102264.91;5081363;28;20164;-79
2021/03/05 06:13:25;;;;;;;24.50;13.83;;;;;;;0.37;66.01;102260.91;5081922;28;20502;-79
2021/03/05 06:16:13;;;;;;;15.60;7.97;;;;;;;0.49;64.09;102269.53;5080473;28;20173;-79
2021/03/05 06:18:38;;;;;;;7.30;5.23;;;;;;;0.47;63.47;102269.41;5080614;28;20665;-79
2021/03/05 06:21:03;;;;;;;11.03;5.90;;;;;;;0.44;63.27;102270.84;5081243;28;20415;-78
2021/03/05 06:23:29;;;;;;;9.40;7.53;;;;;;;0.45;63.58;102272.63;5081213;28;20249;-79
2021/03/05 06:25:59;;;;;;;16.40;7.53;;;;;;;0.83;63.99;102272.03;5080638;28;20252;-79
2021/03/05 06:28:25;;;;;;;11.87;7.03;;;;;;;0.50;63.82;102278.97;5080617;28;20503;-78
2021/03/05 06:30:50;;;;;;;7.43;5.60;;;;;;;0.75;63.08;102285.97;5080478;28;20564;-79
2021/03/05 06:33:30;;;;;;;7.13;5.30;;;;;;;0.74;62.99;102279.94;5063253;28;20431;-78
2021/03/05 06:36:14;;;;;;;8.20;5.67;;;;;;;0.80;62.87;102280.41;5080711;28;20168;-78
2021/03/05 06:38:41;;;;;;;7.10;5.50;;;;;;;0.82;62.81;102280.50;5087607;28;20438;-78
2021/03/05 06:41:27;;;;;;;9.40;5.67;;;;;;;1.15;61.52;102286.31;5095616;28;20419;-79
2021/03/05 06:43:56;;;;;;;7.40;5.70;;;;;;;0.93;62.93;102296.72;5096614;28;20473;-78
2021/03/05 06:46:36;;;;;;;9.53;6.90;;;;;;;1.08;62.17;102302.06;5096573;28;20419;-78
2021/03/05 06:49:04;;;;;;;11.10;6.77;;;;;;;0.89;62.14;102300.72;5084550;28;20419;-77
2021/03/05 06:51:29;;;;;;;8.27;5.90;;;;;;;1.24;61.91;102289.56;5090927;28;20487;-78
2021/03/05 06:54:03;;;;;;;13.33;5.70;;;;;;;0.91;61.85;102300.84;5087059;28;20470;-80
2021/03/05 06:56:29;;;;;;;6.63;5.73;;;;;;;1.23;61.18;102300.66;5082026;28;20169;-78
2021/03/05 06:59:06;;;;;;;10.03;6.27;;;;;;;1.26;60.59;102308.56;5080506;28;20422;-79
2021/03/05 07:01:33;;;;;;;9.50;5.37;;;;;;;1.08;60.78;102308.09;5065164;28;20453;-77
2021/03/05 07:04:11;;;;;;;11.60;6.50;;;;;;;1.57;59.93;102310.78;5091958;28;20395;-78
2021/03/05 07:06:40;;;;;;;8.00;6.30;;;;;;;3.64;53.14;102308.25;5091980;28;20426;-77
2021/03/05 07:09:07;;;;;;;8.00;5.03;;;;;;;5.74;47.03;102295.59;5087687;28;20411;-78
2021/03/05 07:11:44;;;;;;;6.47;5.00;;;;;;;5.97;46.08;102295.97;5082222;28;20425;-78
2021/03/05 07:14:11;;;;;;;10.47;5.17;;;;;;;7.55;42.91;102301.25;5082250;28;20414;-79
2021/03/05 07:16:47;;;;;;;14.40;5.60;;;;;;;8.35;40.62;102301.41;5080192;28;20762;-79
2021/03/05 07:19:20;;;;;;;7.27;4.80;;;;;;;7.97;40.24;102305.78;5080787;28;20680;-78
2021/03/05 07:21:47;;;;;;;9.90;5.23;;;;;;;8.62;39.42;102312.16;5079820;28;20419;-77
2021/03/05 07:24:14;;;;;;;6.30;4.50;;;;;;;9.07;37.79;102307.09;5079903;28;20426;-78
2021/03/05 07:26:52;;;;;;;12.70;6.03;;;;;;;8.26;38.67;102309.69;5078880;28;20430;-79
2021/03/05 07:29:24;;;;;;;8.07;5.30;;;;;;;9.15;38.45;102319.56;5077240;28;20204;-77
2021/03/05 07:32:04;;;;;;;6.60;5.03;;;;;;;9.79;35.78;102318.59;5078397;28;20426;-78
2021/03/05 07:34:35;;;;;;;9.40;4.77;;;;;;;10.00;36.06;102315.94;5079323;28;20411;-77
2021/03/05 07:37:02;;;;;;;5.87;4.47;;;;;;;9.50;36.59;102315.75;5079022;28;20419;-78
2021/03/05 07:39:32;;;;;;;8.50;4.83;;;;;;;9.34;36.77;102324.69;5078563;28;20418;-77
2021/03/05 07:41:58;;;;;;;11.37;5.60;;;;;;;9.50;36.76;102327.88;5078570;28;20456;-76
2021/03/05 07:44:24;;;;;;;10.63;4.97;;;;;;;9.96;36.13;102327.06;5078617;28;20476;-78
2021/03/05 07:46:50;;;;;;;9.80;4.70;;;;;;;10.35;34.63;102329.41;5079661;28;20400;-77
2021/03/05 07:49:16;;;;;;;8.90;4.60;;;;;;;10.35;34.37;102328.50;5079097;28;20666;-78
2021/03/05 07:51:42;;;;;;;11.80;7.40;;;;;;;10.87;33.34;102330.34;5078233;28;20164;-76
2021/03/05 07:54:07;;;;;;;9.43;4.93;;;;;;;10.57;33.73;102336.28;5079108;28;20430;-75
2021/03/05 07:56:41;;;;;;;8.20;5.10;;;;;;;10.55;33.88;102335.34;5078894;28;20824;-76
2021/03/05 07:59:07;;;;;;;8.60;4.97;;;;;;;10.90;33.44;102337.38;5079342;28;20164;-77
2021/03/05 08:01:51;;;;;;;6.67;4.30;;;;;;;11.08;32.84;102338.00;5078518;28;20428;-77
2021/03/05 08:04:16;;;;;;;10.50;4.90;;;;;;;11.08;32.71;102348.44;5079113;28;20193;-77
2021/03/05 08:06:42;;;;;;;6.50;5.07;;;;;;;10.62;33.62;102357.28;5078639;28;20429;-78
2021/03/05 08:09:12;;;;;;;6.17;4.90;;;;;;;11.05;33.42;102360.50;5078631;28;20195;-76
2021/03/05 08:11:39;;;;;;;9.10;5.37;;;;;;;11.79;32.05;102355.91;5078371;28;20244;-77
2021/03/05 08:14:19;;;;;;;6.87;5.17;;;;;;;11.34;31.89;102361.47;5079112;28;20703;-77
2021/03/05 08:16:48;;;;;;;6.20;4.37;;;;;;;11.35;31.90;102360.66;5078024;28;20419;-77
2021/03/05 08:19:15;;;;;;;7.10;4.33;;;;;;;11.15;32.44;102372.13;5079113;28;20897;-75
2021/03/05 08:22:01;;;;;;;5.80;4.93;;;;;;;11.62;31.43;102362.34;5078439;28;20414;-77
2021/03/05 08:24:31;;;;;;;5.10;4.33;;;;;;;11.94;30.87;102365.06;5078745;28;20454;-77
2021/03/05 08:27:05;;;;;;;17.80;6.30;;;;;;;11.44;32.13;102373.09;5078604;28;20463;-77
2021/03/05 08:29:50;;;;;;;8.03;4.50;;;;;;;12.08;30.53;102374.25;5078652;28;20400;-78
2021/03/05 08:32:31;;;;;;;9.30;4.77;;;;;;;12.32;30.33;102375.81;5078634;28;20395;-77
2021/03/05 08:34:56;;;;;;;7.90;4.90;;;;;;;12.07;30.44;102371.56;5078022;28;20505;-77
2021/03/05 08:37:37;;;;;;;6.00;4.50;;;;;;;12.30;30.05;102374.88;5078314;28;20432;-76
2021/03/05 08:40:12;;;;;;;4.70;4.20;;;;;;;13.74;27.61;102379.47;5078624;28;20423;-78
2021/03/05 08:42:41;;;;;;;8.80;5.20;;;;;;;13.51;28.00;102385.91;5078631;28;20678;-79
2021/03/05 08:45:13;;;;;;;9.87;8.53;;;;;;;13.97;26.99;102390.47;5078521;28;20454;-78
2021/03/05 08:47:58;;;;;;;10.60;6.37;;;;;;;13.13;28.24;102392.81;5078726;28;20415;-77
2021/03/05 08:50:30;;;;;;;6.13;4.30;;;;;;;13.03;27.87;102390.81;5078740;28;20676;-77
2021/03/05 08:52:56;;;;;;;10.90;8.30;;;;;;;13.76;27.27;102392.59;5077498;28;20386;-78
2021/03/05 08:55:21;;;;;;;6.90;4.63;;;;;;;13.93;26.51;102390.38;5061595;28;20410;-78
2021/03/05 08:57:54;;;;;;;9.77;8.20;;;;;;;14.24;26.08;102391.03;5079079;28;20176;-76
2021/03/05 09:00:21;;;;;;;7.07;4.13;;;;;;;14.44;25.44;102394.97;5077776;28;20179;-75
2021/03/05 09:02:48;;;;;;;5.70;4.50;;;;;;;14.33;26.12;102401.75;5077597;28;20411;-78
2021/03/05 09:05:24;;;;;;;15.50;13.40;;;;;;;14.48;25.96;102409.91;5078409;28;20872;-76
2021/03/05 09:07:51;;;;;;;5.93;4.40;;;;;;;14.07;26.02;102412.56;5078219;28;20432;-76
2021/03/05 09:10:17;;;;;;;9.17;3.87;;;;;;;15.18;24.50;102403.38;5080324;28;20381;-76
2021/03/05 09:12:56;;;;;;;5.07;3.90;;;;;;;13.62;25.61;102408.88;5081467;28;20734;-77
2021/03/05 09:15:25;;;;;;;11.70;4.73;;;;;;;13.38;26.50;102414.44;5081896;28;20385;-78
2021/03/05 09:17:50;;;;;;;9.03;5.60;;;;;;;13.75;25.86;102415.31;5081038;28;20688;-78
2021/03/05 09:20:16;;;;;;;5.67;3.70;;;;;;;14.44;25.08;102415.94;5082839;28;20382;-78
2021/03/05 09:22:41;;;;;;;5.30;3.90;;;;;;;13.71;25.42;102413.47;5082307;28;20169;-76
2021/03/05 09:25:09;;;;;;;4.63;3.90;;;;;;;12.94;26.48;102411.53;5082785;28;20238;-79
2021/03/05 09:27:42;;;;;;;3.83;3.50;;;;;;;12.51;26.15;102420.81;5082501;28;20149;-79
2021/03/05 09:30:21;;;;;;;6.20;3.43;;;;;;;14.18;24.35;102414.50;5082587;28;20419;-76
2021/03/05 09:32:51;;;;;;;6.17;3.60;;;;;;;13.66;24.14;102412.47;5081746;28;20415;-75
2021/03/05 09:35:34;;;;;;;5.03;3.30;;;;;;;13.11;24.97;102420.72;5081858;28;20414;-77
2021/03/05 09:38:00;;;;;;;3.50;3.20;;;;;;;14.22;23.62;102427.75;5081351;28;20447;-76
2021/03/05 09:40:29;;;;;;;6.90;3.73;;;;;;;13.94;23.30;102431.50;5080954;28;20483;-76
2021/03/05 09:42:56;;;;;;;10.30;3.70;;;;;;;13.32;23.20;102432.56;5080522;28;20200;-77
2021/03/05 09:45:42;;;;;;;10.60;3.37;;;;;;;14.00;23.09;102431.59;5081409;28;20493;-76
2021/03/05 09:48:19;;;;;;;5.80;3.43;;;;;;;12.95;24.01;102439.47;5081167;28;20411;-77
2021/03/05 09:50:45;;;;;;;6.33;3.40;;;;;;;13.12;24.94;102440.81;5080170;28;20419;-77
2021/03/05 09:53:25;;;;;;;3.43;3.00;;;;;;;14.20;22.15;102441.69;5081185;28;20407;-77
2021/03/05 09:56:10;;;;;;;7.60;3.40;;;;;;;14.24;22.62;102446.13;5081241;28;20173;-77
2021/03/05 09:58:35;;;;;;;4.40;3.07;;;;;;;14.61;21.79;102441.66;5080799;28;20394;-76
2021/03/05 10:01:02;;;;;;;3.33;2.93;;;;;;;14.20;22.53;102442.53;5080908;28;20656;-77
2021/03/05 10:03:28;;;;;;;3.67;3.20;;;;;;;14.39;22.22;102446.44;5080273;28;20260;-77
2021/03/05 10:05:53;;;;;;;3.87;3.17;;;;;;;14.01;22.84;102448.25;5080288;28;20525;-76
2021/03/05 10:08:25;;;;;;;8.07;3.30;;;;;;;14.00;22.99;102443.84;5081012;28;20165;-77
2021/03/05 10:10:57;;;;;;;4.00;2.87;;;;;;;13.43;23.16;102443.38;5063161;28;20177;-76
2021/03/05 10:13:38;;;;;;;3.40;3.10;;;;;;;14.31;22.66;102448.94;5080841;28;20407;-77
2021/03/05 10:16:30;;;;;;;5.60;2.90;;;;;;;14.44;22.06;102451.81;5080282;28;20795;-76
2021/03/05 10:19:05;;;;;;;4.37;2.97;;;;;;;13.50;22.49;102454.88;5080515;28;20401;-78
2021/03/05 10:21:32;;;;;;;3.20;2.90;;;;;;;13.59;22.76;102462.97;5079967;28;20393;-76
2021/03/05 10:24:03;;;;;;;4.93;2.97;;;;;;;13.01;23.43;102467.56;5079955;28;20403;-77
2021/03/05 10:26:29;;;;;;;3.20;2.90;;;;;;;14.25;21.94;102468.91;5080697;28;20498;-78
2021/03/05 10:29:03;;;;;;;10.83;3.20;;;;;;;15.52;20.44;102467.00;5081033;28;20415;-79
2021/03/05 10:31:58;;;;;;;4.13;3.50;;;;;;;14.39;21.96;102477.06;5080194;28;20152;-79
2021/03/05 10:34:31;;;;;;;4.00;3.43;;;;;;;14.93;20.93;102471.19;5075664;28;20417;-78
2021/03/05 10:36:58;;;;;;;2.90;2.33;;;;;;;14.75;20.20;102471.72;5080731;28;20397;-77
2021/03/05 10:39:24;;;;;;;4.63;3.03;;;;;;;14.75;20.68;102471.72;5081023;28;20420;-78
2021/03/05 10:41:54;;;;;;;3.77;2.70;;;;;;;15.33;19.42;102477.19;5080910;28;20510;-78
2021/03/05 10:44:19;;;;;;;4.77;3.33;;;;;;;14.27;20.33;102482.91;5080678;28;20428;-78
2021/03/05 10:46:45;;;;;;;3.23;2.60;;;;;;;14.01;21.08;102477.97;5080067;28;20411;-79
2021/03/05 10:49:10;;;;;;;3.30;3.00;;;;;;;14.81;20.59;102477.09;5080314;28;20176;-78
2021/03/05 10:51:35;;;;;;;3.73;3.13;;;;;;;14.73;20.50;102486.56;5079489;28;20177;-77
2021/03/05 10:54:01;;;;;;;3.03;2.73;;;;;;;15.49;19.48;102481.00;5080389;28;20189;-78
2021/03/05 10:56:27;;;;;;;4.00;2.50;;;;;;;14.74;20.63;102479.59;5079803;28;20214;-76
2021/03/05 10:58:53;;;;;;;3.47;2.67;;;;;;;14.30;20.93;102482.97;5080262;28;20225;-77
2021/03/05 11:01:19;;;;;;;6.50;2.70;;;;;;;13.35;24.33;102482.41;5080216;28;20382;-78
2021/03/05 11:03:44;;;;;;;3.93;2.47;;;;;;;14.32;19.76;102482.16;5078935;28;20443;-78
2021/03/05 11:06:09;;;;;;;6.13;2.83;;;;;;;13.27;21.94;102486.56;5079612;28;20224;-78
2021/03/05 11:08:34;;;;;;;5.20;3.53;;;;;;;13.66;21.87;102485.88;5080381;28;20243;-79
2021/03/05 11:11:00;;;;;;;4.27;3.13;;;;;;;11.54;24.82;102497.94;5079480;28;20177;-78
2021/03/05 11:13:25;;;;;;;4.50;2.97;;;;;;;13.19;23.21;102491.63;5078781;28;20188;-79
2021/03/05 11:15:50;;;;;;;3.17;2.63;;;;;;;14.20;21.94;102481.03;5080037;28;20209;-79
2021/03/05 11:18:16;;;;;;;5.00;2.57;;;;;;;14.58;20.66;102483.59;5079586;28;20530;-79
2021/03/05 11:20:41;;;;;;;3.60;3.23;;;;;;;14.49;21.02;102479.91;5080923;28;20217;-77
2021/03/05 11:23:06;;;;;;;3.23;2.80;;;;;;;13.37;22.67;102483.41;5080696;28;20410;-79
2021/03/05 11:25:32;;;;;;;6.60;3.50;;;;;;;14.23;21.34;102479.31;5079218;28;20260;-79
2021/03/05 11:27:57;;;;;;;3.00;2.60;;;;;;;13.62;21.27;102491.88;5079558;28;20173;-79
2021/03/05 11:30:23;;;;;;;4.20;3.13;;;;;;;14.68;21.01;102488.22;5079791;28;20177;-78
2021/03/05 11:32:48;;;;;;;4.53;2.93;;;;;;;14.14;21.27;102482.66;5078280;28;20173;-77
2021/03/05 11:35:14;;;;;;;4.73;3.00;;;;;;;13.51;21.13;102485.50;5078991;28;20248;-76